Sign in

Advertising

Advertising

Info

Aviation weather - KDAB

METAR KDAB 021753Z 18010G18KT 9SM FEW032 SCT080 BKN150 30/23 A2994 RMK AO2 SLP138 CB DSNT S-SW 60000 T03000233 10306 20233 58001

TAF KDAB 021720Z 0218/0318 21012KT P6SM VCSH SCT040 BKN080 FM022200 22010KT P6SM VCSH SCT030 OVC060 FM030200 19007KT P6SM FEW035 BKN090 OVC200

Aviation weather from ADDS. Re-check weather before flight.

-